Ana Sayfa
METAR-TAF:

METAR-TAF

Havaalanları :

Houston, Teksas, Amerika Birleşik Devletleri

Enlem: 29-30-22N, Boylam: 095-28-37W, yükseklik: 21 m

Güncel hava durumu gözlemi

Rapor saat 02:35 UTC de 10 dakika önce yapıldı.
Sakin rüzgar
Sıcaklık 11°C
Nem 87%
Basınç 1015 hPa
Görüş mesafesi: 16.1 km
Açık gökyüzü

METAR: KAXH 190235Z AUTO 00000KT 10SM CLR 11/09 A2996 RMK AO2 T01060094

Saat: 19:45 (02:45 UTC)


TAF: eksik

4.000'den fazla havaalanı için hava durumu gözlemleri ve tahminleri (METAR ve TAF raporları).

Kullanılabilir istasyonlar harita üzerinde sarı ve kırmızı noktalarla gösterilir.

İstasyonun adını görmek için fareyi noktanın üzerinde gezdirin.

Sonrasında hava gözlem ve tahminlerini görmek için tıklayın.

Haritayı değiştirmek için: yaklaştırmak için siyah artı işaretli yeşil düğmeye ve uzaklaştırmak için de eksi işaretli düğmeye hızla tıklayın; bitişik haritalar için yeşil okları kullanın.


METAR-TAF: